sensor_id;sensor_type;location;lat;lon;timestamp;temperature;humidity
21261;DHT22;10788;47.930;9.766;2023-04-08T00:00:09;6.10;99.90
21261;DHT22;10788;47.930;9.766;2023-04-08T00:02:35;6.10;99.90
21261;DHT22;10788;47.930;9.766;2023-04-08T00:05:01;6.10;99.90
21261;DHT22;10788;47.930;9.766;2023-04-08T00:07:26;6.10;99.90
21261;DHT22;10788;47.930;9.766;2023-04-08T00:09:52;6.10;99.90
21261;DHT22;10788;47.930;9.766;2023-04-08T00:12:18;6.10;99.90
21261;DHT22;10788;47.930;9.766;2023-04-08T00:14:43;6.10;99.90
21261;DHT22;10788;47.930;9.766;2023-04-08T00:17:09;6.10;99.90
21261;DHT22;10788;47.930;9.766;2023-04-08T00:19:34;6.10;99.90
21261;DHT22;10788;47.930;9.766;2023-04-08T00:22:00;6.20;99.90
21261;DHT22;10788;47.930;9.766;2023-04-08T00:24:26;6.20;99.90
21261;DHT22;10788;47.930;9.766;2023-04-08T00:26:51;6.10;99.90
21261;DHT22;10788;47.930;9.766;2023-04-08T00:29:17;6.30;99.90
21261;DHT22;10788;47.930;9.766;2023-04-08T00:31:42;6.20;99.90
21261;DHT22;10788;47.930;9.766;2023-04-08T00:34:08;6.20;99.90
21261;DHT22;10788;47.930;9.766;2023-04-08T00:36:34;6.10;99.90
21261;DHT22;10788;47.930;9.766;2023-04-08T00:39:00;6.20;99.90
21261;DHT22;10788;47.930;9.766;2023-04-08T00:41:26;6.10;99.90
21261;DHT22;10788;47.930;9.766;2023-04-08T00:43:53;6.10;99.90
21261;DHT22;10788;47.930;9.766;2023-04-08T00:46:18;6.20;99.90
21261;DHT22;10788;47.930;9.766;2023-04-08T00:48:44;6.30;99.90
21261;DHT22;10788;47.930;9.766;2023-04-08T00:51:10;6.10;99.90
21261;DHT22;10788;47.930;9.766;2023-04-08T00:53:36;6.10;99.90
21261;DHT22;10788;47.930;9.766;2023-04-08T00:56:02;6.10;99.90
21261;DHT22;10788;47.930;9.766;2023-04-08T00:58:28;6.10;99.90
21261;DHT22;10788;47.930;9.766;2023-04-08T01:01:02;6.10;99.90
21261;DHT22;10788;47.930;9.766;2023-04-08T01:06:12;6.10;99.90
21261;DHT22;10788;47.930;9.766;2023-04-08T01:08:40;6.10;99.90
21261;DHT22;10788;47.930;9.766;2023-04-08T01:11:10;6.10;99.90
21261;DHT22;10788;47.930;9.766;2023-04-08T01:13:39;6.10;99.90
21261;DHT22;10788;47.930;9.766;2023-04-08T01:16:09;6.00;99.90
21261;DHT22;10788;47.930;9.766;2023-04-08T01:18:36;6.10;99.90
21261;DHT22;10788;47.930;9.766;2023-04-08T01:21:02;6.10;99.90
21261;DHT22;10788;47.930;9.766;2023-04-08T01:23:45;6.10;99.90
21261;DHT22;10788;47.930;9.766;2023-04-08T01:26:22;6.10;99.90
21261;DHT22;10788;47.930;9.766;2023-04-08T01:28:52;6.10;99.90
21261;DHT22;10788;47.930;9.766;2023-04-08T01:31:18;6.10;99.90
21261;DHT22;10788;47.930;9.766;2023-04-08T01:33:44;6.10;99.90
21261;DHT22;10788;47.930;9.766;2023-04-08T01:36:11;6.10;99.90
21261;DHT22;10788;47.930;9.766;2023-04-08T01:38:37;6.10;99.90
21261;DHT22;10788;47.930;9.766;2023-04-08T01:41:03;6.10;99.90
21261;DHT22;10788;47.930;9.766;2023-04-08T01:43:30;6.10;99.90
21261;DHT22;10788;47.930;9.766;2023-04-08T01:45:59;6.10;99.90
21261;DHT22;10788;47.930;9.766;2023-04-08T01:48:26;6.10;99.90
21261;DHT22;10788;47.930;9.766;2023-04-08T01:50:53;6.10;99.90
21261;DHT22;10788;47.930;9.766;2023-04-08T01:53:21;6.10;99.90
21261;DHT22;10788;47.930;9.766;2023-04-08T01:55:52;6.00;99.90
21261;DHT22;10788;47.930;9.766;2023-04-08T01:58:21;6.00;99.90
21261;DHT22;10788;47.930;9.766;2023-04-08T02:00:47;6.00;99.90
21261;DHT22;10788;47.930;9.766;2023-04-08T02:03:16;6.00;99.90
21261;DHT22;10788;47.930;9.766;2023-04-08T02:05:42;6.00;99.90
21261;DHT22;10788;47.930;9.766;2023-04-08T02:08:08;6.00;99.90
21261;DHT22;10788;47.930;9.766;2023-04-08T02:10:34;5.90;99.90
21261;DHT22;10788;47.930;9.766;2023-04-08T02:12:59;5.90;99.90
21261;DHT22;10788;47.930;9.766;2023-04-08T02:15:28;5.80;99.90
21261;DHT22;10788;47.930;9.766;2023-04-08T02:18:02;5.80;99.90
21261;DHT22;10788;47.930;9.766;2023-04-08T02:20:43;5.90;99.90
21261;DHT22;10788;47.930;9.766;2023-04-08T02:23:17;5.90;99.90
21261;DHT22;10788;47.930;9.766;2023-04-08T02:25:44;5.90;99.90
21261;DHT22;10788;47.930;9.766;2023-04-08T02:28:11;5.90;99.90
21261;DHT22;10788;47.930;9.766;2023-04-08T02:30:42;5.90;99.90
21261;DHT22;10788;47.930;9.766;2023-04-08T02:33:08;5.90;99.90
21261;DHT22;10788;47.930;9.766;2023-04-08T02:35:35;5.90;99.90
21261;DHT22;10788;47.930;9.766;2023-04-08T02:38:03;5.90;99.90
21261;DHT22;10788;47.930;9.766;2023-04-08T02:40:30;5.90;99.90
21261;DHT22;10788;47.930;9.766;2023-04-08T02:42:57;5.80;99.90
21261;DHT22;10788;47.930;9.766;2023-04-08T02:45:31;5.80;99.90
21261;DHT22;10788;47.930;9.766;2023-04-08T02:47:59;5.80;99.90
21261;DHT22;10788;47.930;9.766;2023-04-08T02:50:25;5.70;99.90
21261;DHT22;10788;47.930;9.766;2023-04-08T02:52:50;5.80;99.90
21261;DHT22;10788;47.930;9.766;2023-04-08T02:55:16;5.80;99.90
21261;DHT22;10788;47.930;9.766;2023-04-08T02:57:42;5.80;99.90
21261;DHT22;10788;47.930;9.766;2023-04-08T03:00:08;5.70;99.90
21261;DHT22;10788;47.930;9.766;2023-04-08T03:02:34;5.70;99.90
21261;DHT22;10788;47.930;9.766;2023-04-08T03:05:00;5.70;99.90
21261;DHT22;10788;47.930;9.766;2023-04-08T03:07:25;5.70;99.90
21261;DHT22;10788;47.930;9.766;2023-04-08T03:09:52;5.70;99.90
21261;DHT22;10788;47.930;9.766;2023-04-08T03:12:19;5.80;99.90
21261;DHT22;10788;47.930;9.766;2023-04-08T03:14:45;5.80;99.90
21261;DHT22;10788;47.930;9.766;2023-04-08T03:17:11;5.80;99.90
21261;DHT22;10788;47.930;9.766;2023-04-08T03:19:36;5.80;99.90
21261;DHT22;10788;47.930;9.766;2023-04-08T03:22:02;5.70;99.90
21261;DHT22;10788;47.930;9.766;2023-04-08T03:24:27;5.70;99.90
21261;DHT22;10788;47.930;9.766;2023-04-08T03:26:53;5.60;99.90
21261;DHT22;10788;47.930;9.766;2023-04-08T03:29:18;5.70;99.90
21261;DHT22;10788;47.930;9.766;2023-04-08T03:31:44;5.70;99.90
21261;DHT22;10788;47.930;9.766;2023-04-08T03:34:10;5.70;99.90
21261;DHT22;10788;47.930;9.766;2023-04-08T03:36:35;5.70;99.90
21261;DHT22;10788;47.930;9.766;2023-04-08T03:39:01;5.70;99.90
21261;DHT22;10788;47.930;9.766;2023-04-08T03:41:28;5.70;99.90
21261;DHT22;10788;47.930;9.766;2023-04-08T03:43:54;5.70;99.90
21261;DHT22;10788;47.930;9.766;2023-04-08T03:46:20;5.80;99.90
21261;DHT22;10788;47.930;9.766;2023-04-08T03:48:47;5.70;99.90
21261;DHT22;10788;47.930;9.766;2023-04-08T03:51:12;5.70;99.90
21261;DHT22;10788;47.930;9.766;2023-04-08T03:53:38;5.70;99.90
21261;DHT22;10788;47.930;9.766;2023-04-08T03:56:04;5.60;99.90
21261;DHT22;10788;47.930;9.766;2023-04-08T03:58:30;5.70;99.90
21261;DHT22;10788;47.930;9.766;2023-04-08T04:00:56;5.70;99.90
21261;DHT22;10788;47.930;9.766;2023-04-08T04:03:22;5.70;99.90
21261;DHT22;10788;47.930;9.766;2023-04-08T04:05:48;5.70;99.90
21261;DHT22;10788;47.930;9.766;2023-04-08T04:08:13;5.80;99.90
21261;DHT22;10788;47.930;9.766;2023-04-08T04:10:39;5.80;99.90
21261;DHT22;10788;47.930;9.766;2023-04-08T04:13:05;5.70;99.90
21261;DHT22;10788;47.930;9.766;2023-04-08T04:15:30;5.70;99.90
21261;DHT22;10788;47.930;9.766;2023-04-08T04:17:56;5.70;99.90
21261;DHT22;10788;47.930;9.766;2023-04-08T04:20:22;5.80;99.90
21261;DHT22;10788;47.930;9.766;2023-04-08T04:22:47;5.80;99.90
21261;DHT22;10788;47.930;9.766;2023-04-08T04:25:13;5.70;99.90
21261;DHT22;10788;47.930;9.766;2023-04-08T04:27:39;5.70;99.90
21261;DHT22;10788;47.930;9.766;2023-04-08T04:30:05;5.70;99.90
21261;DHT22;10788;47.930;9.766;2023-04-08T04:32:31;5.70;99.90
21261;DHT22;10788;47.930;9.766;2023-04-08T04:34:57;5.70;99.90
21261;DHT22;10788;47.930;9.766;2023-04-08T04:37:22;5.70;99.90
21261;DHT22;10788;47.930;9.766;2023-04-08T04:39:48;5.70;99.90
21261;DHT22;10788;47.930;9.766;2023-04-08T04:42:13;5.70;99.90
21261;DHT22;10788;47.930;9.766;2023-04-08T04:44:39;5.80;99.90
21261;DHT22;10788;47.930;9.766;2023-04-08T04:47:05;5.70;99.90
21261;DHT22;10788;47.930;9.766;2023-04-08T04:49:31;5.70;99.90
21261;DHT22;10788;47.930;9.766;2023-04-08T04:51:56;5.60;99.90
21261;DHT22;10788;47.930;9.766;2023-04-08T04:54:22;5.60;99.90
21261;DHT22;10788;47.930;9.766;2023-04-08T04:56:47;5.60;99.90
21261;DHT22;10788;47.930;9.766;2023-04-08T04:59:13;5.60;99.90
21261;DHT22;10788;47.930;9.766;2023-04-08T05:01:39;5.70;99.90
21261;DHT22;10788;47.930;9.766;2023-04-08T05:04:05;5.60;99.90
21261;DHT22;10788;47.930;9.766;2023-04-08T05:06:31;5.60;99.90
21261;DHT22;10788;47.930;9.766;2023-04-08T05:08:57;5.60;99.90
21261;DHT22;10788;47.930;9.766;2023-04-08T05:11:22;5.60;99.90
21261;DHT22;10788;47.930;9.766;2023-04-08T05:13:48;5.50;99.90
21261;DHT22;10788;47.930;9.766;2023-04-08T05:16:14;5.50;99.90
21261;DHT22;10788;47.930;9.766;2023-04-08T05:18:39;5.50;99.90
21261;DHT22;10788;47.930;9.766;2023-04-08T05:21:05;5.50;99.90
21261;DHT22;10788;47.930;9.766;2023-04-08T05:23:30;5.50;99.90
21261;DHT22;10788;47.930;9.766;2023-04-08T05:25:56;5.50;99.90
21261;DHT22;10788;47.930;9.766;2023-04-08T05:28:22;5.50;99.90
21261;DHT22;10788;47.930;9.766;2023-04-08T05:30:48;5.50;99.90
21261;DHT22;10788;47.930;9.766;2023-04-08T05:33:15;5.50;99.90
21261;DHT22;10788;47.930;9.766;2023-04-08T05:35:41;5.50;99.90
21261;DHT22;10788;47.930;9.766;2023-04-08T05:38:06;5.50;99.90
21261;DHT22;10788;47.930;9.766;2023-04-08T05:40:32;5.40;99.90
21261;DHT22;10788;47.930;9.766;2023-04-08T05:42:58;5.50;99.90
21261;DHT22;10788;47.930;9.766;2023-04-08T05:45:23;5.50;99.90
21261;DHT22;10788;47.930;9.766;2023-04-08T05:47:49;5.40;99.90
21261;DHT22;10788;47.930;9.766;2023-04-08T05:50:15;5.40;99.90
21261;DHT22;10788;47.930;9.766;2023-04-08T05:52:44;5.50;99.90
21261;DHT22;10788;47.930;9.766;2023-04-08T05:55:11;5.40;99.90
21261;DHT22;10788;47.930;9.766;2023-04-08T05:57:37;5.50;99.90
21261;DHT22;10788;47.930;9.766;2023-04-08T06:00:04;5.50;99.90
21261;DHT22;10788;47.930;9.766;2023-04-08T06:02:31;5.50;99.90
21261;DHT22;10788;47.930;9.766;2023-04-08T06:04:56;5.50;99.90
21261;DHT22;10788;47.930;9.766;2023-04-08T06:07:22;5.40;99.90
21261;DHT22;10788;47.930;9.766;2023-04-08T06:09:48;5.40;99.90
21261;DHT22;10788;47.930;9.766;2023-04-08T06:12:13;5.40;99.90
21261;DHT22;10788;47.930;9.766;2023-04-08T06:14:39;5.40;99.90
21261;DHT22;10788;47.930;9.766;2023-04-08T06:17:05;5.40;99.90
21261;DHT22;10788;47.930;9.766;2023-04-08T06:19:30;5.40;99.90
21261;DHT22;10788;47.930;9.766;2023-04-08T06:21:56;5.40;99.90
21261;DHT22;10788;47.930;9.766;2023-04-08T06:24:27;5.40;99.90
21261;DHT22;10788;47.930;9.766;2023-04-08T06:26:54;5.30;99.90
21261;DHT22;10788;47.930;9.766;2023-04-08T06:29:20;5.30;99.90
21261;DHT22;10788;47.930;9.766;2023-04-08T06:31:46;5.40;99.90
21261;DHT22;10788;47.930;9.766;2023-04-08T06:34:12;5.40;99.90
21261;DHT22;10788;47.930;9.766;2023-04-08T06:36:37;5.40;99.90
21261;DHT22;10788;47.930;9.766;2023-04-08T06:39:03;5.60;99.90
21261;DHT22;10788;47.930;9.766;2023-04-08T06:41:29;5.40;99.90
21261;DHT22;10788;47.930;9.766;2023-04-08T06:43:55;5.40;99.90
21261;DHT22;10788;47.930;9.766;2023-04-08T06:46:21;5.40;99.90
21261;DHT22;10788;47.930;9.766;2023-04-08T06:48:46;5.40;99.90
21261;DHT22;10788;47.930;9.766;2023-04-08T06:51:12;5.40;99.90
21261;DHT22;10788;47.930;9.766;2023-04-08T06:53:38;5.50;99.90
21261;DHT22;10788;47.930;9.766;2023-04-08T06:56:03;5.60;99.90
21261;DHT22;10788;47.930;9.766;2023-04-08T06:58:29;5.60;99.90
21261;DHT22;10788;47.930;9.766;2023-04-08T07:00:55;5.60;99.90
21261;DHT22;10788;47.930;9.766;2023-04-08T07:03:21;5.60;99.90
21261;DHT22;10788;47.930;9.766;2023-04-08T07:05:47;5.60;99.90
21261;DHT22;10788;47.930;9.766;2023-04-08T07:08:12;5.70;99.90
21261;DHT22;10788;47.930;9.766;2023-04-08T07:10:38;5.70;99.90
21261;DHT22;10788;47.930;9.766;2023-04-08T07:13:04;5.70;99.90
21261;DHT22;10788;47.930;9.766;2023-04-08T07:15:30;5.70;99.90
21261;DHT22;10788;47.930;9.766;2023-04-08T07:17:55;5.80;99.90
21261;DHT22;10788;47.930;9.766;2023-04-08T07:20:22;5.70;99.90
21261;DHT22;10788;47.930;9.766;2023-04-08T07:22:48;5.70;99.90
21261;DHT22;10788;47.930;9.766;2023-04-08T07:25:14;5.70;99.90
21261;DHT22;10788;47.930;9.766;2023-04-08T07:27:40;5.60;99.90
21261;DHT22;10788;47.930;9.766;2023-04-08T07:30:06;5.60;99.90
21261;DHT22;10788;47.930;9.766;2023-04-08T07:32:33;5.70;99.90
21261;DHT22;10788;47.930;9.766;2023-04-08T07:34:59;5.70;99.90
21261;DHT22;10788;47.930;9.766;2023-04-08T07:37:25;5.80;99.90
21261;DHT22;10788;47.930;9.766;2023-04-08T07:39:51;5.80;99.90
21261;DHT22;10788;47.930;9.766;2023-04-08T07:42:16;5.90;99.90
21261;DHT22;10788;47.930;9.766;2023-04-08T07:44:43;6.00;99.90
21261;DHT22;10788;47.930;9.766;2023-04-08T07:47:10;6.00;99.90
21261;DHT22;10788;47.930;9.766;2023-04-08T07:49:36;6.00;99.90
21261;DHT22;10788;47.930;9.766;2023-04-08T07:52:02;6.00;99.90
21261;DHT22;10788;47.930;9.766;2023-04-08T07:54:29;6.10;99.90
21261;DHT22;10788;47.930;9.766;2023-04-08T07:56:55;6.10;99.90
21261;DHT22;10788;47.930;9.766;2023-04-08T07:59:21;6.10;99.90
21261;DHT22;10788;47.930;9.766;2023-04-08T08:01:47;6.10;99.90
21261;DHT22;10788;47.930;9.766;2023-04-08T08:04:12;6.10;99.90
21261;DHT22;10788;47.930;9.766;2023-04-08T08:06:38;6.20;99.90
21261;DHT22;10788;47.930;9.766;2023-04-08T08:09:04;6.20;99.90
21261;DHT22;10788;47.930;9.766;2023-04-08T08:11:29;6.20;99.90
21261;DHT22;10788;47.930;9.766;2023-04-08T08:13:55;6.20;99.90
21261;DHT22;10788;47.930;9.766;2023-04-08T08:16:21;6.10;99.90
21261;DHT22;10788;47.930;9.766;2023-04-08T08:18:47;6.10;99.90
21261;DHT22;10788;47.930;9.766;2023-04-08T08:21:12;6.20;99.90
21261;DHT22;10788;47.930;9.766;2023-04-08T08:23:38;6.20;99.90
21261;DHT22;10788;47.930;9.766;2023-04-08T08:26:06;6.20;99.90
21261;DHT22;10788;47.930;9.766;2023-04-08T08:28:32;6.20;99.90
21261;DHT22;10788;47.930;9.766;2023-04-08T08:30:58;6.30;99.90
21261;DHT22;10788;47.930;9.766;2023-04-08T08:33:25;6.30;99.90
21261;DHT22;10788;47.930;9.766;2023-04-08T08:35:51;6.30;99.90
21261;DHT22;10788;47.930;9.766;2023-04-08T08:38:17;6.30;99.90
21261;DHT22;10788;47.930;9.766;2023-04-08T08:40:43;6.30;99.90
21261;DHT22;10788;47.930;9.766;2023-04-08T08:43:09;6.30;99.90
21261;DHT22;10788;47.930;9.766;2023-04-08T08:45:39;6.30;99.90
21261;DHT22;10788;47.930;9.766;2023-04-08T08:48:09;6.30;99.90
21261;DHT22;10788;47.930;9.766;2023-04-08T08:50:34;6.30;99.90
21261;DHT22;10788;47.930;9.766;2023-04-08T08:53:01;6.30;99.90
21261;DHT22;10788;47.930;9.766;2023-04-08T08:55:29;6.30;99.90
21261;DHT22;10788;47.930;9.766;2023-04-08T08:57:56;6.30;99.90
21261;DHT22;10788;47.930;9.766;2023-04-08T09:03:21;6.40;99.90
21261;DHT22;10788;47.930;9.766;2023-04-08T09:10:55;6.30;99.90
21261;DHT22;10788;47.930;9.766;2023-04-08T09:13:34;6.20;99.90
21261;DHT22;10788;47.930;9.766;2023-04-08T09:16:13;6.10;99.90
21261;DHT22;10788;47.930;9.766;2023-04-08T09:18:43;6.10;99.90
21261;DHT22;10788;47.930;9.766;2023-04-08T09:21:11;6.10;99.90
21261;DHT22;10788;47.930;9.766;2023-04-08T09:23:48;6.20;99.90
21261;DHT22;10788;47.930;9.766;2023-04-08T09:26:15;6.20;99.90
21261;DHT22;10788;47.930;9.766;2023-04-08T09:28:43;6.20;99.90
21261;DHT22;10788;47.930;9.766;2023-04-08T09:31:29;6.20;99.90
21261;DHT22;10788;47.930;9.766;2023-04-08T09:33:59;6.20;99.90
21261;DHT22;10788;47.930;9.766;2023-04-08T09:36:28;6.20;99.90
21261;DHT22;10788;47.930;9.766;2023-04-08T09:38:55;6.20;99.90
21261;DHT22;10788;47.930;9.766;2023-04-08T09:41:21;6.30;99.90
21261;DHT22;10788;47.930;9.766;2023-04-08T09:43:50;6.30;99.90
21261;DHT22;10788;47.930;9.766;2023-04-08T09:49:57;6.20;99.90
21261;DHT22;10788;47.930;9.766;2023-04-08T09:52:24;6.20;99.90
21261;DHT22;10788;47.930;9.766;2023-04-08T09:55:07;6.20;99.90
21261;DHT22;10788;47.930;9.766;2023-04-08T10:00:08;6.30;99.90
21261;DHT22;10788;47.930;9.766;2023-04-08T10:03:26;6.30;99.90
21261;DHT22;10788;47.930;9.766;2023-04-08T10:05:26;6.30;99.90
21261;DHT22;10788;47.930;9.766;2023-04-08T10:07:52;6.30;99.90
21261;DHT22;10788;47.930;9.766;2023-04-08T10:10:20;6.40;99.90
21261;DHT22;10788;47.930;9.766;2023-04-08T10:12:47;6.40;99.90
21261;DHT22;10788;47.930;9.766;2023-04-08T10:17:55;6.50;99.90
21261;DHT22;10788;47.930;9.766;2023-04-08T10:22:59;6.60;99.90
21261;DHT22;10788;47.930;9.766;2023-04-08T10:27:50;6.60;99.90
21261;DHT22;10788;47.930;9.766;2023-04-08T10:32:56;6.60;99.90
21261;DHT22;10788;47.930;9.766;2023-04-08T10:35:31;6.70;99.90
21261;DHT22;10788;47.930;9.766;2023-04-08T10:37:59;6.70;99.90
21261;DHT22;10788;47.930;9.766;2023-04-08T10:40:25;6.80;99.90
21261;DHT22;10788;47.930;9.766;2023-04-08T10:42:57;6.80;99.90
21261;DHT22;10788;47.930;9.766;2023-04-08T10:45:23;6.80;99.90
21261;DHT22;10788;47.930;9.766;2023-04-08T10:47:49;6.80;99.90
21261;DHT22;10788;47.930;9.766;2023-04-08T10:50:19;6.80;99.90
21261;DHT22;10788;47.930;9.766;2023-04-08T10:52:48;6.90;99.90
21261;DHT22;10788;47.930;9.766;2023-04-08T10:55:14;6.90;99.90
21261;DHT22;10788;47.930;9.766;2023-04-08T10:57:41;7.10;99.90
21261;DHT22;10788;47.930;9.766;2023-04-08T11:00:10;7.30;99.90
21261;DHT22;10788;47.930;9.766;2023-04-08T11:02:39;7.30;99.90
21261;DHT22;10788;47.930;9.766;2023-04-08T11:05:05;7.30;99.90
21261;DHT22;10788;47.930;9.766;2023-04-08T11:07:31;7.20;99.90
21261;DHT22;10788;47.930;9.766;2023-04-08T11:10:01;7.20;99.90
21261;DHT22;10788;47.930;9.766;2023-04-08T11:12:27;7.20;99.90
21261;DHT22;10788;47.930;9.766;2023-04-08T11:14:52;7.10;99.90
21261;DHT22;10788;47.930;9.766;2023-04-08T11:17:19;7.00;99.90
21261;DHT22;10788;47.930;9.766;2023-04-08T11:19:45;7.00;99.90
21261;DHT22;10788;47.930;9.766;2023-04-08T11:22:11;7.10;99.90
21261;DHT22;10788;47.930;9.766;2023-04-08T11:24:38;7.00;99.90
21261;DHT22;10788;47.930;9.766;2023-04-08T11:27:04;7.00;99.90
21261;DHT22;10788;47.930;9.766;2023-04-08T11:29:33;7.00;99.90
21261;DHT22;10788;47.930;9.766;2023-04-08T11:31:59;6.90;99.90
21261;DHT22;10788;47.930;9.766;2023-04-08T11:34:25;7.00;99.90
21261;DHT22;10788;47.930;9.766;2023-04-08T11:36:51;7.00;99.90
21261;DHT22;10788;47.930;9.766;2023-04-08T11:39:16;7.00;99.90
21261;DHT22;10788;47.930;9.766;2023-04-08T11:41:42;7.10;99.90
21261;DHT22;10788;47.930;9.766;2023-04-08T11:44:09;7.10;99.90
21261;DHT22;10788;47.930;9.766;2023-04-08T11:46:34;7.00;99.90
21261;DHT22;10788;47.930;9.766;2023-04-08T11:49:04;7.00;99.90
21261;DHT22;10788;47.930;9.766;2023-04-08T11:51:31;7.10;99.90
21261;DHT22;10788;47.930;9.766;2023-04-08T11:53:57;7.10;99.90
21261;DHT22;10788;47.930;9.766;2023-04-08T11:56:23;7.30;99.90
21261;DHT22;10788;47.930;9.766;2023-04-08T11:58:50;7.30;99.90
21261;DHT22;10788;47.930;9.766;2023-04-08T12:01:16;7.40;99.90
21261;DHT22;10788;47.930;9.766;2023-04-08T12:03:59;7.50;99.90
21261;DHT22;10788;47.930;9.766;2023-04-08T12:06:25;7.50;99.90
21261;DHT22;10788;47.930;9.766;2023-04-08T12:08:52;7.60;99.90
21261;DHT22;10788;47.930;9.766;2023-04-08T12:11:18;7.60;99.90
21261;DHT22;10788;47.930;9.766;2023-04-08T12:13:44;7.60;99.90
21261;DHT22;10788;47.930;9.766;2023-04-08T12:16:09;7.50;99.90
21261;DHT22;10788;47.930;9.766;2023-04-08T12:18:35;7.50;99.90
21261;DHT22;10788;47.930;9.766;2023-04-08T12:21:01;7.70;99.90
21261;DHT22;10788;47.930;9.766;2023-04-08T12:23:27;7.60;99.90
21261;DHT22;10788;47.930;9.766;2023-04-08T12:25:52;7.50;99.90
21261;DHT22;10788;47.930;9.766;2023-04-08T12:28:18;7.50;99.90
21261;DHT22;10788;47.930;9.766;2023-04-08T12:30:44;7.40;99.90
21261;DHT22;10788;47.930;9.766;2023-04-08T12:33:11;7.30;99.90
21261;DHT22;10788;47.930;9.766;2023-04-08T12:35:36;7.10;99.90
21261;DHT22;10788;47.930;9.766;2023-04-08T12:38:02;7.00;99.90
21261;DHT22;10788;47.930;9.766;2023-04-08T12:40:27;6.80;99.90
21261;DHT22;10788;47.930;9.766;2023-04-08T12:42:53;6.80;99.90
21261;DHT22;10788;47.930;9.766;2023-04-08T12:45:19;6.70;99.90
21261;DHT22;10788;47.930;9.766;2023-04-08T12:47:44;6.80;99.90
21261;DHT22;10788;47.930;9.766;2023-04-08T12:50:10;6.80;99.90
21261;DHT22;10788;47.930;9.766;2023-04-08T12:52:35;6.80;99.90
21261;DHT22;10788;47.930;9.766;2023-04-08T12:55:01;6.90;99.90
21261;DHT22;10788;47.930;9.766;2023-04-08T12:57:27;6.90;99.90
21261;DHT22;10788;47.930;9.766;2023-04-08T12:59:53;7.00;99.90
21261;DHT22;10788;47.930;9.766;2023-04-08T13:02:18;7.10;99.90
21261;DHT22;10788;47.930;9.766;2023-04-08T13:04:44;7.20;99.90
21261;DHT22;10788;47.930;9.766;2023-04-08T13:07:09;7.20;99.90
21261;DHT22;10788;47.930;9.766;2023-04-08T13:09:35;7.30;99.90
21261;DHT22;10788;47.930;9.766;2023-04-08T13:12:01;7.40;99.90
21261;DHT22;10788;47.930;9.766;2023-04-08T13:14:28;7.50;99.90
21261;DHT22;10788;47.930;9.766;2023-04-08T13:16:53;7.60;99.90
21261;DHT22;10788;47.930;9.766;2023-04-08T13:19:19;7.80;99.90
21261;DHT22;10788;47.930;9.766;2023-04-08T13:21:45;7.70;99.90
21261;DHT22;10788;47.930;9.766;2023-04-08T13:24:10;7.80;99.90
21261;DHT22;10788;47.930;9.766;2023-04-08T13:26:36;7.90;99.90
21261;DHT22;10788;47.930;9.766;2023-04-08T13:29:01;8.00;99.90
21261;DHT22;10788;47.930;9.766;2023-04-08T13:31:27;8.00;99.90
21261;DHT22;10788;47.930;9.766;2023-04-08T13:33:52;8.10;99.90
21261;DHT22;10788;47.930;9.766;2023-04-08T13:36:18;8.10;99.90
21261;DHT22;10788;47.930;9.766;2023-04-08T13:38:43;8.10;99.90
21261;DHT22;10788;47.930;9.766;2023-04-08T13:41:10;8.20;99.90
21261;DHT22;10788;47.930;9.766;2023-04-08T13:43:36;8.30;99.90
21261;DHT22;10788;47.930;9.766;2023-04-08T13:46:01;8.30;99.90
21261;DHT22;10788;47.930;9.766;2023-04-08T13:48:27;8.40;99.90
21261;DHT22;10788;47.930;9.766;2023-04-08T13:50:53;8.40;99.90
21261;DHT22;10788;47.930;9.766;2023-04-08T13:53:18;8.50;99.90
21261;DHT22;10788;47.930;9.766;2023-04-08T13:55:44;8.60;99.90
21261;DHT22;10788;47.930;9.766;2023-04-08T13:58:10;8.70;99.90
21261;DHT22;10788;47.930;9.766;2023-04-08T14:00:35;8.70;99.90
21261;DHT22;10788;47.930;9.766;2023-04-08T14:03:01;8.80;99.90
21261;DHT22;10788;47.930;9.766;2023-04-08T14:05:26;8.80;99.90
21261;DHT22;10788;47.930;9.766;2023-04-08T14:07:52;9.00;99.90
21261;DHT22;10788;47.930;9.766;2023-04-08T14:10:17;8.90;99.90
21261;DHT22;10788;47.930;9.766;2023-04-08T14:12:43;8.90;99.90
21261;DHT22;10788;47.930;9.766;2023-04-08T14:15:10;9.00;99.90
21261;DHT22;10788;47.930;9.766;2023-04-08T14:17:36;8.90;99.90
21261;DHT22;10788;47.930;9.766;2023-04-08T14:20:02;8.90;99.90
21261;DHT22;10788;47.930;9.766;2023-04-08T14:22:29;8.90;99.90
21261;DHT22;10788;47.930;9.766;2023-04-08T14:24:55;8.90;99.90
21261;DHT22;10788;47.930;9.766;2023-04-08T14:27:20;8.90;99.90
21261;DHT22;10788;47.930;9.766;2023-04-08T14:29:46;8.90;99.90
21261;DHT22;10788;47.930;9.766;2023-04-08T14:32:12;8.90;99.90
21261;DHT22;10788;47.930;9.766;2023-04-08T14:34:37;9.00;99.90
21261;DHT22;10788;47.930;9.766;2023-04-08T14:37:03;9.20;99.90
21261;DHT22;10788;47.930;9.766;2023-04-08T14:39:29;9.50;99.90
21261;DHT22;10788;47.930;9.766;2023-04-08T14:41:54;9.50;99.90
21261;DHT22;10788;47.930;9.766;2023-04-08T14:44:21;9.40;99.90
21261;DHT22;10788;47.930;9.766;2023-04-08T14:46:47;9.30;99.90
21261;DHT22;10788;47.930;9.766;2023-04-08T14:49:12;9.20;99.90
21261;DHT22;10788;47.930;9.766;2023-04-08T14:51:38;9.10;99.90
21261;DHT22;10788;47.930;9.766;2023-04-08T14:54:04;8.90;99.90
21261;DHT22;10788;47.930;9.766;2023-04-08T14:56:30;8.80;99.90
21261;DHT22;10788;47.930;9.766;2023-04-08T14:58:55;8.60;99.90
21261;DHT22;10788;47.930;9.766;2023-04-08T15:01:21;8.50;99.90
21261;DHT22;10788;47.930;9.766;2023-04-08T15:03:47;8.50;99.90
21261;DHT22;10788;47.930;9.766;2023-04-08T15:06:12;8.50;99.90
21261;DHT22;10788;47.930;9.766;2023-04-08T15:08:41;8.30;99.90
21261;DHT22;10788;47.930;9.766;2023-04-08T15:11:07;8.30;99.90
21261;DHT22;10788;47.930;9.766;2023-04-08T15:13:33;8.30;99.90
21261;DHT22;10788;47.930;9.766;2023-04-08T15:16:00;8.20;99.90
21261;DHT22;10788;47.930;9.766;2023-04-08T15:18:26;8.10;99.90
21261;DHT22;10788;47.930;9.766;2023-04-08T15:20:52;8.10;99.90
21261;DHT22;10788;47.930;9.766;2023-04-08T15:23:17;8.10;99.90
21261;DHT22;10788;47.930;9.766;2023-04-08T15:25:43;8.00;99.90
21261;DHT22;10788;47.930;9.766;2023-04-08T15:28:08;8.00;99.90
21261;DHT22;10788;47.930;9.766;2023-04-08T15:30:34;7.90;99.90
21261;DHT22;10788;47.930;9.766;2023-04-08T15:33:02;7.90;99.90
21261;DHT22;10788;47.930;9.766;2023-04-08T15:35:29;7.90;99.90
21261;DHT22;10788;47.930;9.766;2023-04-08T15:37:54;7.80;99.90
21261;DHT22;10788;47.930;9.766;2023-04-08T15:40:20;7.80;99.90
21261;DHT22;10788;47.930;9.766;2023-04-08T15:42:46;7.70;99.90
21261;DHT22;10788;47.930;9.766;2023-04-08T15:45:11;7.70;99.90
21261;DHT22;10788;47.930;9.766;2023-04-08T15:47:37;7.70;99.90
21261;DHT22;10788;47.930;9.766;2023-04-08T15:50:03;7.70;99.90
21261;DHT22;10788;47.930;9.766;2023-04-08T15:52:29;7.70;99.90
21261;DHT22;10788;47.930;9.766;2023-04-08T15:54:55;7.70;99.90
21261;DHT22;10788;47.930;9.766;2023-04-08T15:57:21;7.70;99.90
21261;DHT22;10788;47.930;9.766;2023-04-08T15:59:51;7.70;99.90
21261;DHT22;10788;47.930;9.766;2023-04-08T16:02:17;7.70;99.90
21261;DHT22;10788;47.930;9.766;2023-04-08T16:04:42;7.60;99.90
21261;DHT22;10788;47.930;9.766;2023-04-08T16:07:08;7.70;99.90